Minneapolis, Minnesota
Traffic Map
Current Weather Conditions
Minneapolis, Minnesota
Broken Clouds
Broken Clouds
10°
Feels Like: 10°
Wind Chill: 10° Ceiling: 3500
Heat Index: 10° Visibility: 10mi
Dew Point: Wind: 10mph
Humidity: 86% Direction: 320° (NW)
Pressure: 29.86in Gusts: 0mph
Raw Report DataKMSP 280153Z 32009KT 10SM SCT016 BKN035 BKN055 10/08 A2986 RMK AO2 DZB18E28 SLP115 P0000 T01000078
Traffic Incident Summary
Active as of:
Severity:
Category:
InformationThere was an issue retrieving the traffic information for this location. Please try a different location or try again shortly.
Advertisements
Track Severe Weather on mobile